Hlavní strana
METAR-TAF:

METAR-TAF

Letiště :

Mohylev, Bělorusko

zeměpisná šířka: 53-57-18N, zeměpisná délka: 030-05-42E, výška: 194 m

Aktuální stav počasí

Zpráva byla vytvořena před 13 hodinami a 40 minutami, v 13:30 UTC
Jihovýchodní vítr 8 kt
Teplota 7°C
Vlhkost vzduchu 100%
Tlak 1025 hPa
Viditelnost: 0700 m
mlha

METAR: UMOO 171330Z 14004MPS 0700 R13/0800 FG VV002 07/07 Q1025 R13/290068 NOSIG RMK QBB060

Čas: 06:10 (03:10 UTC)

Předpověď počasí

Zpráva byla vytvořena před 16 hodinami a 10 minutami, v 11:00 UTC
Předpověď platná od 17 v 12 UTC do 17 v 21 UTC
Jižní vítr 10 kt
Viditelnost: 1600 m
Zataženo ve výšce 200 ft
kouřmo
Dočasný
od 17 v 12 UTC do 17 v 21 UTC
Jižní vítr 12 kt
Viditelnost: 0600 m
ve výšce 100 ft
slabé mrholení, mlha

TAF: UMOO 171100Z 1712/1721 17005MPS 1600 BR OVC002 TEMPO 1712/1721 19006MPS 0600 -DZ FG VV001

Stav a předpovědi počasí z více než 4 000 letišť (zprávy METAR a TAF).

Červené a žluté tečky na mapě představují dostupné meteorologické stanice.

Když kurzor umístíte na tečku, zobrazí se název stanice.

Pak kliknutím zobrazíte stav a předpověď počasí.

Chcete-li změnit mapu, kliknutím na zelené tlačítko se znaménkem +mapu přiblížíte, kliknutím na zelené tlačítko se znaménkem – mapu oddálíte a kliknutím na zelené šipky přejdete na sousední mapy.


METAR-TAF: